createdAt,value
2016-05-30T00:01:00.047Z,0
2016-05-30T00:02:00.049Z,0
2016-05-30T00:03:00.083Z,0
2016-05-30T00:04:00.055Z,0
2016-05-30T00:05:00.058Z,0
2016-05-30T00:06:00.060Z,0
2016-05-30T00:07:00.625Z,0
2016-05-30T00:07:59.924Z,0
2016-05-30T00:09:00.068Z,0
2016-05-30T00:10:00.071Z,0
2016-05-30T00:11:00.074Z,0
2016-05-30T00:12:00.060Z,0
2016-05-30T00:12:59.938Z,0
2016-05-30T00:13:59.926Z,0
2016-05-30T00:15:00.068Z,0
2016-05-30T00:15:59.931Z,0
2016-05-30T00:17:00.074Z,0
2016-05-30T00:17:59.936Z,0
2016-05-30T00:19:00.079Z,0
2016-05-30T00:20:00.067Z,0
2016-05-30T00:20:59.787Z,0
2016-05-30T00:22:00.619Z,0
2016-05-30T00:23:00.090Z,0
2016-05-30T00:24:00.092Z,0
2016-05-30T00:25:00.080Z,0
2016-05-30T00:26:00.097Z,0
2016-05-30T00:27:00.085Z,0
2016-05-30T00:28:00.089Z,0
2016-05-30T00:28:59.934Z,0
2016-05-30T00:30:00.109Z,0
2016-05-30T00:31:00.080Z,0
2016-05-30T00:32:00.099Z,0
2016-05-30T00:33:00.101Z,0
2016-05-30T00:33:59.947Z,0
2016-05-30T00:35:00.107Z,0
2016-05-30T00:36:00.094Z,0
2016-05-30T00:37:00.831Z,0
2016-05-30T00:37:59.958Z,0
2016-05-30T00:39:00.101Z,0
2016-05-30T00:39:59.964Z,0
2016-05-30T00:41:00.108Z,0
2016-05-30T00:42:00.110Z,0
2016-05-30T00:42:59.957Z,0
2016-05-30T00:44:00.099Z,0
2016-05-30T00:45:00.118Z,0
2016-05-30T00:46:00.105Z,0
2016-05-30T00:47:00.108Z,0
2016-05-30T00:48:00.110Z,0
2016-05-30T00:49:00.129Z,0
2016-05-30T00:49:59.960Z,0
2016-05-30T00:50:59.978Z,0
2016-05-30T00:51:59.653Z,0
2016-05-30T00:52:59.967Z,0
2016-05-30T00:53:59.970Z,0
2016-05-30T00:55:00.129Z,0
2016-05-30T00:55:59.976Z,0
2016-05-30T00:56:59.978Z,0
2016-05-30T00:58:00.137Z,0
2016-05-30T00:58:59.984Z,0
2016-05-30T01:00:00.127Z,0
2016-05-30T01:01:00.114Z,0
2016-05-30T01:02:00.147Z,0
2016-05-30T01:03:00.150Z,0
2016-05-30T01:04:00.122Z,0
2016-05-30T01:04:59.985Z,0
2016-05-30T01:05:59.971Z,0
2016-05-30T01:07:00.255Z,0
2016-05-30T01:08:00.133Z,0
2016-05-30T01:09:00.135Z,0
2016-05-30T01:10:00.123Z,0
2016-05-30T01:11:00.140Z,0
2016-05-30T01:12:00.143Z,0
2016-05-30T01:12:59.974Z,0
2016-05-30T01:14:00.134Z,0
2016-05-30T01:15:00.151Z,0
2016-05-30T01:16:00.140Z,0
2016-05-30T01:16:59.985Z,0
2016-05-30T01:18:00.004Z,0
2016-05-30T01:19:00.006Z,0
2016-05-30T01:19:59.993Z,0
2016-05-30T01:21:00.012Z,0
2016-05-30T01:22:00.781Z,0
2016-05-30T01:23:00.158Z,0
2016-05-30T01:24:00.145Z,0
2016-05-30T01:25:00.007Z,0
2016-05-30T01:26:00.151Z,0
2016-05-30T01:27:00.153Z,0
2016-05-30T01:28:00.000Z,0
2016-05-30T01:29:00.158Z,0
2016-05-30T01:30:00.161Z,0
2016-05-30T01:31:00.164Z,0
2016-05-30T01:32:00.166Z,0
2016-05-30T01:33:00.028Z,0
2016-05-30T01:34:00.171Z,0
2016-05-30T01:35:00.019Z,0
2016-05-30T01:35:59.864Z,0
2016-05-30T01:37:00.242Z,0
2016-05-30T01:38:00.166Z,0
2016-05-30T01:39:00.029Z,0
2016-05-30T01:40:00.188Z,0
2016-05-30T01:41:00.050Z,0
2016-05-30T01:42:00.177Z,0
2016-05-30T01:43:00.180Z,0
2016-05-30T01:44:00.183Z,0
2016-05-30T01:45:00.185Z,0
2016-05-30T01:46:00.188Z,0
2016-05-30T01:47:00.190Z,0
2016-05-30T01:48:00.021Z,0
2016-05-30T01:49:00.024Z,0
2016-05-30T01:50:00.184Z,0
2016-05-30T01:51:00.029Z,0
2016-05-30T01:52:01.032Z,0
2016-05-30T01:53:00.051Z,0
2016-05-30T01:53:59.881Z,0
2016-05-30T01:55:00.181Z,0
2016-05-30T01:56:00.199Z,0
2016-05-30T01:56:59.889Z,0
2016-05-30T01:58:00.189Z,0
2016-05-30T01:59:00.208Z,0
2016-05-30T02:00:00.194Z,0
2016-05-30T02:00:59.886Z,0
2016-05-30T02:02:00.200Z,0
2016-05-30T02:03:00.202Z,0
2016-05-30T02:04:00.205Z,0
2016-05-30T02:05:00.192Z,0
2016-05-30T02:06:00.211Z,0
2016-05-30T02:06:59.917Z,0
2016-05-30T02:08:00.061Z,0
2016-05-30T02:09:00.218Z,0
2016-05-30T02:10:00.206Z,0
2016-05-30T02:11:00.208Z,0
2016-05-30T02:11:59.899Z,0
2016-05-30T02:13:00.058Z,0
2016-05-30T02:14:00.216Z,0
2016-05-30T02:15:00.219Z,0
2016-05-30T02:16:00.207Z,0
2016-05-30T02:17:00.069Z,0
2016-05-30T02:18:00.212Z,0
2016-05-30T02:19:00.215Z,0
2016-05-30T02:20:00.062Z,0
2016-05-30T02:21:00.064Z,0
2016-05-30T02:22:00.348Z,0
2016-05-30T02:23:00.225Z,0
2016-05-30T02:24:00.228Z,0
2016-05-30T02:25:00.075Z,0
2016-05-30T02:26:00.062Z,0
2016-05-30T02:27:00.220Z,0
2016-05-30T02:28:00.083Z,0
2016-05-30T02:29:00.070Z,0
2016-05-30T02:29:59.916Z,0
2016-05-30T02:31:00.075Z,0
2016-05-30T02:32:00.093Z,0
2016-05-30T02:33:00.065Z,0
2016-05-30T02:34:00.083Z,0
2016-05-30T02:35:00.242Z,0
2016-05-30T02:36:00.088Z,0
2016-05-30T02:37:00.294Z,0
2016-05-30T02:38:00.235Z,0
2016-05-30T02:39:00.093Z,0
2016-05-30T02:40:00.280Z,0
2016-05-30T02:41:00.324Z,0
2016-05-30T02:42:00.182Z,0
2016-05-30T02:43:00.212Z,0
2016-05-30T02:44:00.061Z,0
2016-05-30T02:45:00.246Z,0
2016-05-30T02:46:00.415Z,0
2016-05-30T02:47:00.411Z,0
2016-05-30T02:48:00.423Z,0
2016-05-30T02:49:00.449Z,0
2016-05-30T02:50:00.438Z,0
2016-05-30T02:51:00.445Z,0
2016-05-30T02:52:00.685Z,0
2016-05-30T02:53:00.301Z,0
2016-05-30T02:54:00.462Z,0
2016-05-30T02:55:00.466Z,0
2016-05-30T02:56:00.454Z,0
2016-05-30T02:57:00.474Z,0
2016-05-30T02:58:00.462Z,0
2016-05-30T02:59:00.465Z,0
2016-05-30T03:00:00.469Z,0
2016-05-30T03:01:00.458Z,0
2016-05-30T03:02:00.475Z,0
2016-05-30T03:03:00.307Z,0
2016-05-30T03:04:00.170Z,0
2016-05-30T03:05:00.485Z,0
2016-05-30T03:06:00.488Z,0
2016-05-30T03:07:00.647Z,0
2016-05-30T03:08:00.524Z,0
2016-05-30T03:09:00.324Z,0
2016-05-30T03:10:00.484Z,0
2016-05-30T03:11:00.486Z,0
2016-05-30T03:12:00.489Z,0
2016-05-30T03:13:00.491Z,0
2016-05-30T03:14:00.337Z,0
2016-05-30T03:15:00.481Z,0
2016-05-30T03:16:00.359Z,0
2016-05-30T03:17:00.502Z,0
2016-05-30T03:18:00.348Z,0
2016-05-30T03:19:00.491Z,0
2016-05-30T03:20:00.494Z,0
2016-05-30T03:21:00.481Z,0
2016-05-30T03:22:01.655Z,0
2016-05-30T03:23:00.346Z,0
2016-05-30T03:24:00.349Z,0
2016-05-30T03:25:00.508Z,0
2016-05-30T03:26:00.213Z,0
2016-05-30T03:27:00.340Z,0
2016-05-30T03:28:00.500Z,0
2016-05-30T03:29:00.502Z,0
2016-05-30T03:30:00.334Z,0
2016-05-30T03:31:00.507Z,0
2016-05-30T03:32:00.354Z,0
2016-05-30T03:33:00.357Z,0
2016-05-30T03:34:00.500Z,0
2016-05-30T03:35:00.206Z,0
2016-05-30T03:36:00.209Z,0
2016-05-30T03:37:00.384Z,0
2016-05-30T03:38:00.356Z,0
2016-05-30T03:39:00.515Z,0
2016-05-30T03:40:00.500Z,0
2016-05-30T03:41:00.364Z,0
2016-05-30T03:42:00.507Z,0
2016-05-30T03:43:00.525Z,0
2016-05-30T03:44:00.543Z,0
2016-05-30T03:45:00.515Z,0
2016-05-30T03:46:00.220Z,0
2016-05-30T03:47:00.520Z,0
2016-05-30T03:48:00.366Z,0
2016-05-30T03:49:00.525Z,0
2016-05-30T03:50:00.544Z,0
2016-05-30T03:51:00.531Z,0
2016-05-30T03:52:02.314Z,0
2016-05-30T03:53:00.380Z,0
2016-05-30T03:54:00.523Z,0
2016-05-30T03:55:00.526Z,0
2016-05-30T03:56:00.372Z,0
2016-05-30T03:57:00.375Z,0
2016-05-30T03:58:00.534Z,0
2016-05-30T03:59:00.537Z,0
2016-05-30T04:00:00.368Z,0
2016-05-30T04:01:00.385Z,0
2016-05-30T04:02:00.545Z,0
2016-05-30T04:03:00.547Z,0
2016-05-30T04:04:00.394Z,0
2016-05-30T04:05:00.537Z,0
2016-05-30T04:06:00.540Z,0
2016-05-30T04:07:01.120Z,0
2016-05-30T04:08:00.545Z,0
2016-05-30T04:09:00.376Z,0
2016-05-30T04:10:00.395Z,0
2016-05-30T04:11:00.554Z,0
2016-05-30T04:12:00.556Z,0
2016-05-30T04:13:00.542Z,0
2016-05-30T04:14:00.546Z,0
2016-05-30T04:15:00.548Z,0
2016-05-30T04:16:00.551Z,0
2016-05-30T04:17:00.570Z,0
2016-05-30T04:18:00.572Z,0
2016-05-30T04:19:00.559Z,0
2016-05-30T04:20:00.437Z,0
2016-05-30T04:21:00.424Z,0
2016-05-30T04:22:00.849Z,0
2016-05-30T04:23:00.570Z,0
2016-05-30T04:24:00.557Z,5
2016-05-30T04:25:00.575Z,0
2016-05-30T04:26:00.577Z,5
2016-05-30T04:27:00.565Z,5
2016-05-30T04:28:00.568Z,5
2016-05-30T04:29:00.554Z,5
2016-05-30T04:30:00.557Z,5
2016-05-30T04:31:00.576Z,5
2016-05-30T04:32:00.579Z,5
2016-05-30T04:33:00.409Z,5
2016-05-30T04:34:00.427Z,10
2016-05-30T04:35:00.570Z,5
2016-05-30T04:36:00.417Z,5
2016-05-30T04:37:01.077Z,5
2016-05-30T04:38:00.579Z,5
2016-05-30T04:39:00.581Z,10
2016-05-30T04:40:00.428Z,10
2016-05-30T04:41:00.587Z,10
2016-05-30T04:42:00.589Z,10
2016-05-30T04:43:00.577Z,10
2016-05-30T04:44:00.423Z,10
2016-05-30T04:45:00.581Z,10
2016-05-30T04:46:00.601Z,10
2016-05-30T04:47:00.431Z,15
2016-05-30T04:48:00.434Z,15
2016-05-30T04:49:00.437Z,15
2016-05-30T04:50:00.283Z,15
2016-05-30T04:51:00.583Z,15
2016-05-30T04:52:01.351Z,20
2016-05-30T04:53:00.588Z,20
2016-05-30T04:54:00.591Z,20
2016-05-30T04:55:00.453Z,20
2016-05-30T04:56:00.299Z,20
2016-05-30T04:57:00.583Z,20
2016-05-30T04:58:00.602Z,20
2016-05-30T04:59:00.448Z,20
2016-05-30T05:00:00.451Z,20
2016-05-30T05:01:00.594Z,20
2016-05-30T05:02:00.596Z,20
2016-05-30T05:03:00.443Z,20
2016-05-30T05:04:00.602Z,20
2016-05-30T05:05:00.448Z,25
2016-05-30T05:06:00.623Z,25
2016-05-30T05:07:01.485Z,25
2016-05-30T05:08:00.456Z,25
2016-05-30T05:09:00.459Z,25
2016-05-30T05:10:00.603Z,25
2016-05-30T05:11:00.620Z,25
2016-05-30T05:12:00.623Z,25
2016-05-30T05:13:00.611Z,25
2016-05-30T05:14:00.628Z,25
2016-05-30T05:15:00.616Z,25
2016-05-30T05:16:00.603Z,25
2016-05-30T05:17:01.575Z,25
2016-05-30T05:18:00.639Z,30
2016-05-30T05:19:00.611Z,30
2016-05-30T05:20:00.458Z,30
2016-05-30T05:21:00.617Z,35
2016-05-30T05:22:00.901Z,35
2016-05-30T05:23:00.622Z,40
2016-05-30T05:24:00.312Z,40
2016-05-30T05:25:00.643Z,40
2016-05-30T05:26:00.474Z,40
2016-05-30T05:27:00.633Z,40
2016-05-30T05:28:00.620Z,40
2016-05-30T05:29:00.654Z,35
2016-05-30T05:30:00.624Z,35
2016-05-30T05:31:00.472Z,30
2016-05-30T05:32:00.490Z,30
2016-05-30T05:33:00.633Z,35
2016-05-30T05:34:00.635Z,35
2016-05-30T05:35:00.638Z,35
2016-05-30T05:36:00.626Z,35
2016-05-30T05:37:00.659Z,35
2016-05-30T05:38:00.506Z,35
2016-05-30T05:39:00.649Z,35
2016-05-30T05:40:00.651Z,35
2016-05-30T05:41:00.655Z,40
2016-05-30T05:42:00.657Z,40
2016-05-30T05:43:00.645Z,40
2016-05-30T05:44:00.662Z,40
2016-05-30T05:45:00.665Z,40
2016-05-30T05:46:00.511Z,40
2016-05-30T05:47:00.640Z,40
2016-05-30T05:48:00.658Z,45
2016-05-30T05:49:00.661Z,45
2016-05-30T05:50:00.664Z,45
2016-05-30T05:51:00.509Z,50
2016-05-30T05:52:00.918Z,55
2016-05-30T05:53:00.514Z,55
2016-05-30T05:54:00.362Z,55
2016-05-30T05:55:00.677Z,55
2016-05-30T05:56:00.508Z,55
2016-05-30T05:57:00.666Z,50
2016-05-30T05:58:00.669Z,50
2016-05-30T05:59:00.672Z,50
2016-05-30T06:00:00.675Z,50
2016-05-30T06:01:00.677Z,50
2016-05-30T06:02:00.524Z,55
2016-05-30T06:03:00.511Z,55
2016-05-30T06:04:00.529Z,50
2016-05-30T06:05:00.672Z,50
2016-05-30T06:06:00.379Z,55
2016-05-30T06:07:00.443Z,55
2016-05-30T06:08:00.524Z,55
2016-05-30T06:09:00.699Z,60
2016-05-30T06:10:00.685Z,60
2016-05-30T06:11:00.688Z,60
2016-05-30T06:12:00.691Z,60
2016-05-30T06:13:02.772Z,65
2016-05-30T06:14:00.540Z,65
2016-05-30T06:15:00.387Z,65
2016-05-30T06:16:00.701Z,70
2016-05-30T06:17:00.689Z,65
2016-05-30T06:18:04.895Z,65
2016-05-30T06:19:00.725Z,65
2016-05-30T06:20:00.697Z,65
2016-05-30T06:21:00.700Z,65
2016-05-30T06:22:00.733Z,70
2016-05-30T06:23:02.314Z,70
2016-05-30T06:24:00.239Z,70
2016-05-30T06:25:00.710Z,65
2016-05-30T06:26:00.713Z,65
2016-05-30T06:27:00.544Z,60
2016-05-30T06:28:04.577Z,60
2016-05-30T06:29:00.705Z,60
2016-05-30T06:30:01.677Z,55
2016-05-30T06:31:00.710Z,55
2016-05-30T06:32:00.729Z,55
2016-05-30T06:33:05.576Z,50
2016-05-30T06:34:00.735Z,50
2016-05-30T06:35:00.722Z,50
2016-05-30T06:36:00.584Z,55
2016-05-30T06:37:00.743Z,55
2016-05-30T06:38:02.651Z,60
2016-05-30T06:39:00.420Z,65
2016-05-30T06:40:00.735Z,70
2016-05-30T06:41:00.737Z,70
2016-05-30T06:42:00.585Z,75
2016-05-30T06:43:04.353Z,80
2016-05-30T06:44:00.746Z,85
2016-05-30T06:45:04.561Z,85
2016-05-30T06:46:00.751Z,80
2016-05-30T06:47:00.739Z,80
2016-05-30T06:48:02.319Z,80
2016-05-30T06:49:00.604Z,75
2016-05-30T06:50:02.059Z,80
2016-05-30T06:51:02.452Z,75
2016-05-30T06:52:01.549Z,80
2016-05-30T06:53:02.130Z,80
2016-05-30T06:54:00.757Z,85
2016-05-30T06:55:01.292Z,90
2016-05-30T06:56:02.513Z,95
2016-05-30T06:57:00.625Z,95
2016-05-30T06:58:03.909Z,100
2016-05-30T06:59:00.802Z,100
2016-05-30T07:00:00.774Z,105
2016-05-30T07:01:00.776Z,100
2016-05-30T07:02:00.763Z,100
2016-05-30T07:03:03.266Z,110
2016-05-30T07:04:00.769Z,110
2016-05-30T07:05:04.288Z,115
2016-05-30T07:06:03.555Z,115
2016-05-30T07:07:00.402Z,120
2016-05-30T07:08:00.623Z,125
2016-05-30T07:09:00.501Z,130
2016-05-30T07:10:05.003Z,130
2016-05-30T07:11:01.460Z,130
2016-05-30T07:12:00.634Z,125
2016-05-30T07:13:01.792Z,120
2016-05-30T07:14:00.796Z,120
2016-05-30T07:15:06.329Z,110
2016-05-30T07:16:00.801Z,115
2016-05-30T07:17:00.788Z,120
2016-05-30T07:18:17.854Z,115
2016-05-30T07:19:00.653Z,115
2016-05-30T07:20:00.546Z,115
2016-05-30T07:21:00.814Z,110
2016-05-30T07:22:00.676Z,105
2016-05-30T07:23:02.601Z,100
2016-05-30T07:24:00.666Z,100
2016-05-30T07:25:08.059Z,110
2016-05-30T07:26:00.656Z,115
2016-05-30T07:27:00.675Z,115
2016-05-30T07:28:06.239Z,105
2016-05-30T07:29:00.820Z,100
2016-05-30T07:30:01.964Z,100
2016-05-30T07:31:01.450Z,105
2016-05-30T07:32:00.844Z,110
2016-05-30T07:33:03.237Z,115
2016-05-30T07:34:00.849Z,115
2016-05-30T07:35:05.993Z,120
2016-05-30T07:36:00.839Z,120
2016-05-30T07:37:00.560Z,125
2016-05-30T07:38:01.594Z,120
2016-05-30T07:39:00.846Z,115
2016-05-30T07:40:00.694Z,115
2016-05-30T07:41:02.446Z,110
2016-05-30T07:42:00.840Z,105
2016-05-30T07:43:04.482Z,105
2016-05-30T07:44:00.877Z,90
2016-05-30T07:45:03.801Z,95
2016-05-30T07:46:00.865Z,95
2016-05-30T07:47:00.728Z,90
2016-05-30T07:48:04.746Z,85
2016-05-30T07:49:00.718Z,85
2016-05-30T07:50:04.142Z,90
2016-05-30T07:51:00.911Z,95
2016-05-30T07:52:01.663Z,95
2016-05-30T07:53:02.916Z,100
2016-05-30T07:54:00.887Z,100
2016-05-30T07:55:00.734Z,110
2016-05-30T07:56:00.893Z,110
2016-05-30T07:57:00.739Z,120
2016-05-30T07:58:04.055Z,115
2016-05-30T07:59:00.900Z,110
2016-05-30T08:00:00.903Z,115
2016-05-30T08:01:00.906Z,120
2016-05-30T08:02:00.909Z,115
2016-05-30T08:03:04.364Z,115
2016-05-30T08:04:00.914Z,120
2016-05-30T08:05:00.917Z,120
2016-05-30T08:06:00.904Z,120
2016-05-30T08:07:01.688Z,120
2016-05-30T08:08:00.925Z,120
2016-05-30T08:09:00.928Z,115
2016-05-30T08:10:00.930Z,125
2016-05-30T08:11:00.777Z,125
2016-05-30T08:12:00.935Z,125
2016-05-30T08:13:02.938Z,120
2016-05-30T08:14:00.941Z,115
2016-05-30T08:15:00.788Z,110
2016-05-30T08:16:00.947Z,115
2016-05-30T08:17:00.809Z,120
2016-05-30T08:18:04.999Z,140
2016-05-30T08:19:00.954Z,130
2016-05-30T08:20:00.957Z,135
2016-05-30T08:21:00.632Z,125
2016-05-30T08:22:01.323Z,105
2016-05-30T08:23:04.341Z,130
2016-05-30T08:24:00.967Z,120
2016-05-30T08:25:00.814Z,100
2016-05-30T08:26:00.989Z,120
2016-05-30T08:27:00.961Z,125
2016-05-30T08:28:04.557Z,120
2016-05-30T08:29:00.825Z,125
2016-05-30T08:30:00.969Z,125
2016-05-30T08:31:00.830Z,120
2016-05-30T08:32:00.989Z,115
2016-05-30T08:33:03.117Z,105
2016-05-30T08:34:00.683Z,100
2016-05-30T08:35:00.841Z,120
2016-05-30T08:36:01.000Z,120
2016-05-30T08:37:01.019Z,115
2016-05-30T08:38:04.474Z,120
2016-05-30T08:39:01.055Z,115
2016-05-30T08:40:00.996Z,140
2016-05-30T08:41:00.858Z,150
2016-05-30T08:42:00.861Z,140
2016-05-30T08:43:03.815Z,140
2016-05-30T08:44:01.022Z,115
2016-05-30T08:45:01.040Z,95
2016-05-30T08:46:00.715Z,105
2016-05-30T08:47:01.029Z,140
2016-05-30T08:48:01.032Z,145
2016-05-30T08:49:01.035Z,135
2016-05-30T08:50:01.038Z,125
2016-05-30T08:51:00.869Z,135
2016-05-30T08:52:00.950Z,130
2016-05-30T08:53:03.858Z,130
2016-05-30T08:54:01.048Z,145
2016-05-30T08:55:00.754Z,140
2016-05-30T08:56:00.914Z,110
2016-05-30T08:57:01.057Z,100
2016-05-30T08:58:02.092Z,95
2016-05-30T08:59:00.906Z,90
2016-05-30T09:00:00.596Z,90
2016-05-30T09:01:00.770Z,90
2016-05-30T09:02:00.930Z,100
2016-05-30T09:03:04.308Z,95
2016-05-30T09:04:00.592Z,75
2016-05-30T09:05:00.922Z,75
2016-05-30T09:06:01.081Z,105
2016-05-30T09:07:01.146Z,130
2016-05-30T09:08:01.103Z,145
2016-05-30T09:09:00.933Z,140
2016-05-30T09:10:01.091Z,135
2016-05-30T09:11:00.954Z,140
2016-05-30T09:12:00.785Z,145
2016-05-30T09:13:00.944Z,140
2016-05-30T09:14:01.102Z,135
2016-05-30T09:15:01.121Z,150
2016-05-30T09:16:00.951Z,150
2016-05-30T09:17:00.970Z,135
2016-05-30T09:18:01.113Z,125
2016-05-30T09:19:00.804Z,125
2016-05-30T09:20:01.135Z,130
2016-05-30T09:21:01.121Z,135
2016-05-30T09:22:01.218Z,140
2016-05-30T09:23:00.986Z,140
2016-05-30T09:24:01.145Z,140
2016-05-30T09:25:01.148Z,140
2016-05-30T09:26:00.979Z,140
2016-05-30T09:27:00.981Z,165
2016-05-30T09:28:01.139Z,170
2016-05-30T09:29:01.143Z,165
2016-05-30T09:30:01.145Z,170
2016-05-30T09:31:01.055Z,170
2016-05-30T09:32:00.854Z,165
2016-05-30T09:33:01.170Z,150
2016-05-30T09:34:01.172Z,140
2016-05-30T09:35:01.175Z,145
2016-05-30T09:36:01.161Z,155
2016-05-30T09:37:01.134Z,170
2016-05-30T09:38:01.027Z,185
2016-05-30T09:39:01.185Z,195
2016-05-30T09:40:01.188Z,210
2016-05-30T09:41:01.191Z,225
2016-05-30T09:42:01.193Z,210
2016-05-30T09:43:01.213Z,215
2016-05-30T09:44:00.884Z,250
2016-05-30T09:45:01.201Z,255
2016-05-30T09:46:01.205Z,240
2016-05-30T09:47:01.191Z,245
2016-05-30T09:48:01.066Z,255
2016-05-30T09:49:01.209Z,230
2016-05-30T09:50:01.072Z,200
2016-05-30T09:51:01.246Z,200
2016-05-30T09:52:01.327Z,210
2016-05-30T09:53:01.220Z,235
2016-05-30T09:54:01.239Z,245
2016-05-30T09:55:01.241Z,235
2016-05-30T09:56:01.244Z,215
2016-05-30T09:57:01.247Z,210
2016-05-30T09:58:01.265Z,185
2016-05-30T09:59:01.252Z,180
2016-05-30T10:00:01.098Z,180
2016-05-30T10:01:01.273Z,155
2016-05-30T10:02:01.261Z,160
2016-05-30T10:03:00.950Z,155
2016-05-30T10:04:01.281Z,170
2016-05-30T10:05:01.269Z,175
2016-05-30T10:06:01.287Z,175
2016-05-30T10:07:01.336Z,155
2016-05-30T10:08:01.136Z,150
2016-05-30T10:09:00.983Z,150
2016-05-30T10:10:01.298Z,160
2016-05-30T10:11:01.285Z,190
2016-05-30T10:12:01.288Z,205
2016-05-30T10:13:01.306Z,225
2016-05-30T10:14:01.308Z,200
2016-05-30T10:15:01.139Z,190
2016-05-30T10:16:01.174Z,200
2016-05-30T10:17:01.301Z,230
2016-05-30T10:18:01.335Z,255
2016-05-30T10:19:01.321Z,280
2016-05-30T10:20:01.324Z,280
2016-05-30T10:21:01.171Z,280
2016-05-30T10:22:01.532Z,250
2016-05-30T10:23:01.332Z,225
2016-05-30T10:24:01.351Z,210
2016-05-30T10:25:01.354Z,275
2016-05-30T10:26:02.059Z,245
2016-05-30T10:27:01.359Z,215
2016-05-30T10:28:00.909Z,160
2016-05-30T10:29:01.223Z,170
2016-05-30T10:30:01.367Z,170
2016-05-30T10:31:01.370Z,200
2016-05-30T10:32:01.216Z,270
2016-05-30T10:33:01.219Z,270
2016-05-30T10:34:01.378Z,235
2016-05-30T10:35:01.224Z,240
2016-05-30T10:36:00.914Z,240
2016-05-30T10:37:01.261Z,205
2016-05-30T10:38:01.389Z,175
2016-05-30T10:39:01.250Z,150
2016-05-30T10:40:01.425Z,130
2016-05-30T10:41:01.240Z,195
2016-05-30T10:42:01.415Z,230
2016-05-30T10:43:01.433Z,220
2016-05-30T10:44:01.280Z,205
2016-05-30T10:45:01.423Z,235
2016-05-30T10:46:01.113Z,255
2016-05-30T10:47:01.271Z,275
2016-05-30T10:48:01.447Z,265
2016-05-30T10:49:01.308Z,275
2016-05-30T10:50:01.467Z,270
2016-05-30T10:51:01.454Z,255
2016-05-30T10:52:01.239Z,255
2016-05-30T10:53:01.460Z,260
2016-05-30T10:54:01.307Z,215
2016-05-30T10:55:01.466Z,240
2016-05-30T10:56:01.468Z,250
2016-05-30T10:57:01.330Z,250
2016-05-30T10:58:01.162Z,260
2016-05-30T10:59:01.492Z,260
2016-05-30T11:00:01.495Z,225
2016-05-30T11:01:01.481Z,235
2016-05-30T11:02:01.484Z,250
2016-05-30T11:03:01.503Z,265
2016-05-30T11:04:01.520Z,285
2016-05-30T11:05:01.508Z,285
2016-05-30T11:06:01.526Z,275
2016-05-30T11:07:02.341Z,260
2016-05-30T11:08:01.516Z,245
2016-05-30T11:09:01.534Z,255
2016-05-30T11:10:01.380Z,265
2016-05-30T11:11:01.539Z,275
2016-05-30T11:12:01.542Z,270
2016-05-30T11:13:01.389Z,260
2016-05-30T11:14:01.391Z,260
2016-05-30T11:15:01.550Z,280
2016-05-30T11:16:01.413Z,285
2016-05-30T11:17:01.555Z,280
2016-05-30T11:18:01.558Z,265
2016-05-30T11:19:01.561Z,240
2016-05-30T11:20:01.580Z,235
2016-05-30T11:21:01.598Z,225
2016-05-30T11:22:01.444Z,230
2016-05-30T11:23:01.588Z,230
2016-05-30T11:24:01.435Z,230
2016-05-30T11:25:01.452Z,230
2016-05-30T11:26:01.596Z,230
2016-05-30T11:27:01.614Z,245
2016-05-30T11:28:01.632Z,225
2016-05-30T11:29:01.603Z,235
2016-05-30T11:30:01.607Z,235
2016-05-30T11:31:01.640Z,230
2016-05-30T11:32:01.628Z,240
2016-05-30T11:33:01.630Z,255
2016-05-30T11:34:01.633Z,260
2016-05-30T11:35:01.323Z,270
2016-05-30T11:36:01.639Z,270
2016-05-30T11:37:02.453Z,260
2016-05-30T11:38:01.503Z,255
2016-05-30T11:39:01.489Z,255
2016-05-30T11:40:01.665Z,240
2016-05-30T11:41:01.667Z,245
2016-05-30T11:42:01.529Z,230
2016-05-30T11:43:01.672Z,220
2016-05-30T11:44:01.691Z,205
2016-05-30T11:45:01.678Z,205
2016-05-30T11:46:01.695Z,200
2016-05-30T11:47:01.563Z,205
2016-05-30T11:48:01.758Z,200
2016-05-30T11:49:01.640Z,195
2016-05-30T11:50:01.647Z,200
2016-05-30T11:51:01.832Z,200
2016-05-30T11:52:02.405Z,200
2016-05-30T11:53:01.712Z,210
2016-05-30T11:54:01.847Z,220
2016-05-30T11:55:01.872Z,225
2016-05-30T11:56:01.894Z,230
2016-05-30T11:57:01.727Z,235
2016-05-30T11:58:01.905Z,245
2016-05-30T11:59:01.894Z,240
2016-05-30T12:00:01.900Z,240
2016-05-30T12:01:01.904Z,235
2016-05-30T12:02:01.908Z,240
2016-05-30T12:03:01.912Z,235
2016-05-30T12:04:01.776Z,230
2016-05-30T12:05:01.935Z,225
2016-05-30T12:06:01.923Z,215
2016-05-30T12:07:01.973Z,215
2016-05-30T12:08:02.070Z,225
2016-05-30T12:09:01.792Z,245
2016-05-30T12:10:01.967Z,240
2016-05-30T12:11:01.954Z,225
2016-05-30T12:12:01.957Z,230
2016-05-30T12:13:01.537Z,230
2016-05-30T12:14:01.978Z,230
2016-05-30T12:15:01.980Z,215
2016-05-30T12:16:01.983Z,210
2016-05-30T12:17:01.986Z,215
2016-05-30T12:18:01.707Z,215
2016-05-30T12:19:01.992Z,215
2016-05-30T12:20:02.009Z,205
2016-05-30T12:21:01.997Z,175
2016-05-30T12:22:02.250Z,150
2016-05-30T12:23:02.033Z,155
2016-05-30T12:24:01.864Z,155
2016-05-30T12:25:02.023Z,135
2016-05-30T12:26:02.025Z,130
2016-05-30T12:27:02.028Z,120
2016-05-30T12:28:02.047Z,125
2016-05-30T12:29:01.721Z,130
2016-05-30T12:30:02.036Z,145
2016-05-30T12:31:02.055Z,150
2016-05-30T12:32:02.058Z,145
2016-05-30T12:33:02.060Z,145
2016-05-30T12:34:01.922Z,170
2016-05-30T12:35:02.081Z,170
2016-05-30T12:36:01.771Z,160
2016-05-30T12:37:02.602Z,130
2016-05-30T12:38:02.074Z,115
2016-05-30T12:39:02.092Z,105
2016-05-30T12:40:02.079Z,110
2016-05-30T12:41:02.098Z,115
2016-05-30T12:42:01.943Z,130
2016-05-30T12:43:02.103Z,140
2016-05-30T12:44:01.965Z,140
2016-05-30T12:45:02.109Z,125
2016-05-30T12:46:02.095Z,170
2016-05-30T12:47:02.176Z,190
2016-05-30T12:48:02.131Z,165
2016-05-30T12:49:01.963Z,150
2016-05-30T12:50:02.122Z,140
2016-05-30T12:51:02.140Z,145
2016-05-30T12:52:02.142Z,180
2016-05-30T12:53:02.223Z,200
2016-05-30T12:54:02.148Z,175
2016-05-30T12:55:02.150Z,150
2016-05-30T12:56:02.153Z,140
2016-05-30T12:57:02.172Z,150
2016-05-30T12:58:02.159Z,165
2016-05-30T12:59:02.036Z,170
2016-05-30T13:00:01.883Z,180
2016-05-30T13:01:02.182Z,175
2016-05-30T13:02:02.185Z,190
2016-05-30T13:03:01.922Z,195
2016-05-30T13:04:02.190Z,200
2016-05-30T13:05:02.208Z,165
2016-05-30T13:06:02.211Z,150
2016-05-30T13:07:02.105Z,145
2016-05-30T13:08:02.217Z,130
2016-05-30T13:09:02.063Z,120
2016-05-30T13:10:02.066Z,125
2016-05-30T13:11:02.210Z,110
2016-05-30T13:12:02.212Z,115
2016-05-30T13:13:02.246Z,115
2016-05-30T13:14:02.217Z,135
2016-05-30T13:15:02.282Z,130
2016-05-30T13:16:02.082Z,145
2016-05-30T13:17:02.225Z,140
2016-05-30T13:18:02.087Z,135
2016-05-30T13:19:02.246Z,165
2016-05-30T13:20:02.248Z,155
2016-05-30T13:21:02.251Z,150
2016-05-30T13:22:03.208Z,145
2016-05-30T13:23:02.273Z,145
2016-05-30T13:24:02.259Z,135
2016-05-30T13:25:02.278Z,130
2016-05-30T13:26:01.969Z,130
2016-05-30T13:27:02.127Z,120
2016-05-30T13:28:02.286Z,115
2016-05-30T13:29:02.289Z,120
2016-05-30T13:30:02.291Z,110
2016-05-30T13:31:02.278Z,105
2016-05-30T13:32:02.297Z,120
2016-05-30T13:33:02.143Z,130
2016-05-30T13:34:02.303Z,130
2016-05-30T13:35:02.321Z,170
2016-05-30T13:36:02.166Z,190
2016-05-30T13:37:02.170Z,170
2016-05-30T13:38:02.001Z,140
2016-05-30T13:39:02.332Z,125
2016-05-30T13:40:02.178Z,115
2016-05-30T13:41:02.321Z,120
2016-05-30T13:42:02.199Z,125
2016-05-30T13:43:04.718Z,125
2016-05-30T13:44:02.345Z,120
2016-05-30T13:45:02.363Z,135
2016-05-30T13:46:02.210Z,165
2016-05-30T13:47:02.353Z,190
2016-05-30T13:48:02.371Z,190
2016-05-30T13:49:02.358Z,175
2016-05-30T13:50:02.362Z,175
2016-05-30T13:51:02.395Z,160
2016-05-30T13:52:02.695Z,155
2016-05-30T13:53:02.400Z,155
2016-05-30T13:54:02.372Z,175
2016-05-30T13:55:02.375Z,185
2016-05-30T13:56:02.237Z,180
2016-05-30T13:57:02.395Z,175
2016-05-30T13:58:02.070Z,170
2016-05-30T13:59:02.401Z,160
2016-05-30T14:00:02.247Z,160
2016-05-30T14:01:02.266Z,165
2016-05-30T14:02:02.268Z,130
2016-05-30T14:03:02.443Z,125
2016-05-30T14:04:02.430Z,125
2016-05-30T14:05:02.261Z,150
2016-05-30T14:06:02.310Z,140
2016-05-30T14:07:02.344Z,135
2016-05-30T14:08:03.035Z,135
2016-05-30T14:09:02.287Z,130
2016-05-30T14:10:02.446Z,120
2016-05-30T14:11:02.293Z,105